sensor_id;sensor_type;location;lat;lon;timestamp;temperature;humidity
27619;DHT22;15039;50.830;4.730;2023-12-28T00:01:36;11.20;99.90
27619;DHT22;15039;50.830;4.730;2023-12-28T00:04:03;11.20;99.90
27619;DHT22;15039;50.830;4.730;2023-12-28T00:06:32;11.10;99.90
27619;DHT22;15039;50.830;4.730;2023-12-28T00:08:58;11.10;99.90
27619;DHT22;15039;50.830;4.730;2023-12-28T00:11:25;11.10;99.90
27619;DHT22;15039;50.830;4.730;2023-12-28T00:13:51;11.10;99.90
27619;DHT22;15039;50.830;4.730;2023-12-28T00:16:17;11.10;99.90
27619;DHT22;15039;50.830;4.730;2023-12-28T00:18:42;11.10;99.90
27619;DHT22;15039;50.830;4.730;2023-12-28T00:21:08;11.10;99.90
27619;DHT22;15039;50.830;4.730;2023-12-28T00:23:34;11.10;99.90
27619;DHT22;15039;50.830;4.730;2023-12-28T00:25:59;11.10;99.90
27619;DHT22;15039;50.830;4.730;2023-12-28T00:28:25;11.10;99.90
27619;DHT22;15039;50.830;4.730;2023-12-28T00:30:51;11.10;99.90
27619;DHT22;15039;50.830;4.730;2023-12-28T00:33:16;11.10;99.90
27619;DHT22;15039;50.830;4.730;2023-12-28T00:35:42;11.00;99.90
27619;DHT22;15039;50.830;4.730;2023-12-28T00:38:08;11.00;99.90
27619;DHT22;15039;50.830;4.730;2023-12-28T00:40:33;11.00;99.90
27619;DHT22;15039;50.830;4.730;2023-12-28T00:42:59;11.00;99.90
27619;DHT22;15039;50.830;4.730;2023-12-28T00:45:25;10.90;99.90
27619;DHT22;15039;50.830;4.730;2023-12-28T00:47:50;10.80;99.90
27619;DHT22;15039;50.830;4.730;2023-12-28T00:50:17;10.80;99.90
27619;DHT22;15039;50.830;4.730;2023-12-28T00:52:44;10.80;99.90
27619;DHT22;15039;50.830;4.730;2023-12-28T00:55:10;10.80;99.90
27619;DHT22;15039;50.830;4.730;2023-12-28T00:57:36;10.80;99.90
27619;DHT22;15039;50.830;4.730;2023-12-28T01:00:02;10.80;99.90
27619;DHT22;15039;50.830;4.730;2023-12-28T01:02:28;10.80;99.90
27619;DHT22;15039;50.830;4.730;2023-12-28T01:04:53;10.80;99.90
27619;DHT22;15039;50.830;4.730;2023-12-28T01:07:19;10.90;99.90
27619;DHT22;15039;50.830;4.730;2023-12-28T01:09:46;10.90;99.90
27619;DHT22;15039;50.830;4.730;2023-12-28T01:12:12;10.80;99.90
27619;DHT22;15039;50.830;4.730;2023-12-28T01:14:37;10.80;99.90
27619;DHT22;15039;50.830;4.730;2023-12-28T01:17:03;10.70;99.90
27619;DHT22;15039;50.830;4.730;2023-12-28T01:19:29;10.70;99.90
27619;DHT22;15039;50.830;4.730;2023-12-28T01:21:55;10.70;99.90
27619;DHT22;15039;50.830;4.730;2023-12-28T01:24:20;10.70;99.90
27619;DHT22;15039;50.830;4.730;2023-12-28T01:26:47;10.70;99.90
27619;DHT22;15039;50.830;4.730;2023-12-28T01:29:13;10.70;99.90
27619;DHT22;15039;50.830;4.730;2023-12-28T01:31:39;10.70;99.90
27619;DHT22;15039;50.830;4.730;2023-12-28T01:34:05;10.60;99.90
27619;DHT22;15039;50.830;4.730;2023-12-28T01:36:31;10.60;99.90
27619;DHT22;15039;50.830;4.730;2023-12-28T01:38:56;10.60;99.90
27619;DHT22;15039;50.830;4.730;2023-12-28T01:41:22;10.60;99.90
27619;DHT22;15039;50.830;4.730;2023-12-28T01:43:48;10.60;99.90
27619;DHT22;15039;50.830;4.730;2023-12-28T01:46:17;10.60;99.90
27619;DHT22;15039;50.830;4.730;2023-12-28T01:48:48;10.50;99.90
27619;DHT22;15039;50.830;4.730;2023-12-28T01:51:15;10.50;99.90
27619;DHT22;15039;50.830;4.730;2023-12-28T01:53:41;10.50;99.90
27619;DHT22;15039;50.830;4.730;2023-12-28T01:56:07;10.50;99.90
27619;DHT22;15039;50.830;4.730;2023-12-28T01:58:35;10.60;99.90
27619;DHT22;15039;50.830;4.730;2023-12-28T02:01:02;10.50;99.90
27619;DHT22;15039;50.830;4.730;2023-12-28T02:03:29;10.50;99.90
27619;DHT22;15039;50.830;4.730;2023-12-28T02:05:55;10.50;99.90
27619;DHT22;15039;50.830;4.730;2023-12-28T02:08:21;10.60;99.90
27619;DHT22;15039;50.830;4.730;2023-12-28T02:10:47;10.50;99.90
27619;DHT22;15039;50.830;4.730;2023-12-28T02:13:13;10.50;99.90
27619;DHT22;15039;50.830;4.730;2023-12-28T02:15:39;10.50;99.90
27619;DHT22;15039;50.830;4.730;2023-12-28T02:18:12;10.50;99.90
27619;DHT22;15039;50.830;4.730;2023-12-28T02:20:39;10.50;99.90
27619;DHT22;15039;50.830;4.730;2023-12-28T02:23:05;10.50;99.90
27619;DHT22;15039;50.830;4.730;2023-12-28T02:25:31;10.50;99.90
27619;DHT22;15039;50.830;4.730;2023-12-28T02:27:57;10.50;99.90
27619;DHT22;15039;50.830;4.730;2023-12-28T02:30:24;10.50;99.90
27619;DHT22;15039;50.830;4.730;2023-12-28T02:33:10;10.50;99.90
27619;DHT22;15039;50.830;4.730;2023-12-28T02:35:48;10.50;99.90
27619;DHT22;15039;50.830;4.730;2023-12-28T02:38:16;10.50;99.90
27619;DHT22;15039;50.830;4.730;2023-12-28T02:40:43;10.50;99.90
27619;DHT22;15039;50.830;4.730;2023-12-28T02:43:10;10.50;99.90
27619;DHT22;15039;50.830;4.730;2023-12-28T02:45:37;10.50;99.90
27619;DHT22;15039;50.830;4.730;2023-12-28T02:48:03;10.50;99.90
27619;DHT22;15039;50.830;4.730;2023-12-28T02:50:30;10.60;99.90
27619;DHT22;15039;50.830;4.730;2023-12-28T02:52:56;10.60;99.90
27619;DHT22;15039;50.830;4.730;2023-12-28T02:55:22;10.60;99.90
27619;DHT22;15039;50.830;4.730;2023-12-28T02:57:50;10.60;99.90
27619;DHT22;15039;50.830;4.730;2023-12-28T03:00:16;10.60;99.90
27619;DHT22;15039;50.830;4.730;2023-12-28T03:02:42;10.50;99.90
27619;DHT22;15039;50.830;4.730;2023-12-28T03:05:08;10.50;99.90
27619;DHT22;15039;50.830;4.730;2023-12-28T03:07:34;10.60;99.90
27619;DHT22;15039;50.830;4.730;2023-12-28T03:10:00;10.50;99.90
27619;DHT22;15039;50.830;4.730;2023-12-28T03:12:27;10.40;99.90
27619;DHT22;15039;50.830;4.730;2023-12-28T03:14:54;10.50;99.90
27619;DHT22;15039;50.830;4.730;2023-12-28T03:17:20;10.60;99.90
27619;DHT22;15039;50.830;4.730;2023-12-28T03:19:46;10.50;99.90
27619;DHT22;15039;50.830;4.730;2023-12-28T03:22:11;10.50;99.90
27619;DHT22;15039;50.830;4.730;2023-12-28T03:24:37;10.60;99.90
27619;DHT22;15039;50.830;4.730;2023-12-28T03:27:04;10.60;99.90
27619;DHT22;15039;50.830;4.730;2023-12-28T03:29:30;10.60;99.90
27619;DHT22;15039;50.830;4.730;2023-12-28T03:31:56;10.70;99.90
27619;DHT22;15039;50.830;4.730;2023-12-28T03:34:22;10.70;99.90
27619;DHT22;15039;50.830;4.730;2023-12-28T03:36:49;10.70;99.90
27619;DHT22;15039;50.830;4.730;2023-12-28T03:39:15;10.70;99.90
27619;DHT22;15039;50.830;4.730;2023-12-28T03:41:40;10.70;99.90
27619;DHT22;15039;50.830;4.730;2023-12-28T03:44:06;10.80;99.90
27619;DHT22;15039;50.830;4.730;2023-12-28T03:46:32;10.80;99.90
27619;DHT22;15039;50.830;4.730;2023-12-28T03:48:58;10.80;99.90
27619;DHT22;15039;50.830;4.730;2023-12-28T03:51:23;10.80;99.90
27619;DHT22;15039;50.830;4.730;2023-12-28T03:53:49;10.80;99.90
27619;DHT22;15039;50.830;4.730;2023-12-28T03:56:25;10.70;99.90
27619;DHT22;15039;50.830;4.730;2023-12-28T03:58:51;10.80;99.90
27619;DHT22;15039;50.830;4.730;2023-12-28T04:01:21;10.80;99.90
27619;DHT22;15039;50.830;4.730;2023-12-28T04:03:48;10.80;99.90
27619;DHT22;15039;50.830;4.730;2023-12-28T04:06:14;10.80;99.90
27619;DHT22;15039;50.830;4.730;2023-12-28T04:08:41;10.80;99.90
27619;DHT22;15039;50.830;4.730;2023-12-28T04:11:08;10.80;99.90
27619;DHT22;15039;50.830;4.730;2023-12-28T04:13:34;10.80;99.90
27619;DHT22;15039;50.830;4.730;2023-12-28T04:16:00;10.80;99.90
27619;DHT22;15039;50.830;4.730;2023-12-28T04:18:26;10.80;99.90
27619;DHT22;15039;50.830;4.730;2023-12-28T04:20:53;10.80;99.90
27619;DHT22;15039;50.830;4.730;2023-12-28T04:23:19;10.80;99.90
27619;DHT22;15039;50.830;4.730;2023-12-28T04:25:45;10.80;99.90
27619;DHT22;15039;50.830;4.730;2023-12-28T04:28:12;10.80;99.90
27619;DHT22;15039;50.830;4.730;2023-12-28T04:30:37;10.80;99.90
27619;DHT22;15039;50.830;4.730;2023-12-28T04:33:03;10.80;99.90
27619;DHT22;15039;50.830;4.730;2023-12-28T04:35:29;10.80;99.90
27619;DHT22;15039;50.830;4.730;2023-12-28T04:37:56;10.90;99.90
27619;DHT22;15039;50.830;4.730;2023-12-28T04:40:21;11.00;99.90
27619;DHT22;15039;50.830;4.730;2023-12-28T04:42:47;11.00;99.90
27619;DHT22;15039;50.830;4.730;2023-12-28T04:45:13;10.90;99.90
27619;DHT22;15039;50.830;4.730;2023-12-28T04:47:39;11.00;99.90
27619;DHT22;15039;50.830;4.730;2023-12-28T04:50:07;11.00;99.90
27619;DHT22;15039;50.830;4.730;2023-12-28T04:52:33;10.90;99.90
27619;DHT22;15039;50.830;4.730;2023-12-28T04:54:58;11.00;99.90
27619;DHT22;15039;50.830;4.730;2023-12-28T04:57:25;10.90;99.90
27619;DHT22;15039;50.830;4.730;2023-12-28T04:59:53;10.90;99.90
27619;DHT22;15039;50.830;4.730;2023-12-28T05:02:19;10.90;99.90
27619;DHT22;15039;50.830;4.730;2023-12-28T05:04:44;10.90;99.90
27619;DHT22;15039;50.830;4.730;2023-12-28T05:07:10;10.90;99.90
27619;DHT22;15039;50.830;4.730;2023-12-28T05:09:36;10.80;99.90
27619;DHT22;15039;50.830;4.730;2023-12-28T05:12:02;10.80;99.90
27619;DHT22;15039;50.830;4.730;2023-12-28T05:14:28;10.80;99.90
27619;DHT22;15039;50.830;4.730;2023-12-28T05:16:53;10.80;99.90
27619;DHT22;15039;50.830;4.730;2023-12-28T05:19:19;10.80;99.90
27619;DHT22;15039;50.830;4.730;2023-12-28T05:21:45;10.80;99.90
27619;DHT22;15039;50.830;4.730;2023-12-28T05:24:11;10.70;99.90
27619;DHT22;15039;50.830;4.730;2023-12-28T05:26:37;10.70;99.90
27619;DHT22;15039;50.830;4.730;2023-12-28T05:29:03;10.70;99.90
27619;DHT22;15039;50.830;4.730;2023-12-28T05:31:28;10.70;99.90
27619;DHT22;15039;50.830;4.730;2023-12-28T05:33:54;10.60;99.90
27619;DHT22;15039;50.830;4.730;2023-12-28T05:36:20;10.60;99.90
27619;DHT22;15039;50.830;4.730;2023-12-28T05:38:45;10.60;99.90
27619;DHT22;15039;50.830;4.730;2023-12-28T05:41:11;10.60;99.90
27619;DHT22;15039;50.830;4.730;2023-12-28T05:43:37;10.60;99.90
27619;DHT22;15039;50.830;4.730;2023-12-28T05:46:04;10.60;99.90
27619;DHT22;15039;50.830;4.730;2023-12-28T05:48:29;10.60;99.90
27619;DHT22;15039;50.830;4.730;2023-12-28T05:50:57;10.60;99.90
27619;DHT22;15039;50.830;4.730;2023-12-28T05:53:24;10.60;99.90
27619;DHT22;15039;50.830;4.730;2023-12-28T05:55:49;10.60;99.90
27619;DHT22;15039;50.830;4.730;2023-12-28T05:58:15;10.70;99.90
27619;DHT22;15039;50.830;4.730;2023-12-28T06:00:41;10.70;99.90
27619;DHT22;15039;50.830;4.730;2023-12-28T06:03:07;10.80;99.90
27619;DHT22;15039;50.830;4.730;2023-12-28T06:05:33;10.70;99.90
27619;DHT22;15039;50.830;4.730;2023-12-28T06:07:58;10.70;99.90
27619;DHT22;15039;50.830;4.730;2023-12-28T06:10:24;10.80;99.90
27619;DHT22;15039;50.830;4.730;2023-12-28T06:12:50;10.80;99.90
27619;DHT22;15039;50.830;4.730;2023-12-28T06:15:16;10.80;99.90
27619;DHT22;15039;50.830;4.730;2023-12-28T06:17:42;10.80;99.90
27619;DHT22;15039;50.830;4.730;2023-12-28T06:20:08;10.70;99.90
27619;DHT22;15039;50.830;4.730;2023-12-28T06:22:36;10.80;99.90
27619;DHT22;15039;50.830;4.730;2023-12-28T06:25:02;10.70;99.90
27619;DHT22;15039;50.830;4.730;2023-12-28T06:27:29;10.70;99.90
27619;DHT22;15039;50.830;4.730;2023-12-28T06:29:55;10.70;99.90
27619;DHT22;15039;50.830;4.730;2023-12-28T06:32:21;10.70;99.90
27619;DHT22;15039;50.830;4.730;2023-12-28T06:34:47;10.70;99.90
27619;DHT22;15039;50.830;4.730;2023-12-28T06:37:13;10.70;99.90
27619;DHT22;15039;50.830;4.730;2023-12-28T06:39:39;10.60;99.90
27619;DHT22;15039;50.830;4.730;2023-12-28T06:42:05;10.60;99.90
27619;DHT22;15039;50.830;4.730;2023-12-28T06:44:31;10.60;99.90
27619;DHT22;15039;50.830;4.730;2023-12-28T06:46:56;10.60;99.90
27619;DHT22;15039;50.830;4.730;2023-12-28T06:49:23;10.70;99.90
27619;DHT22;15039;50.830;4.730;2023-12-28T06:51:49;10.60;99.90
27619;DHT22;15039;50.830;4.730;2023-12-28T06:54:15;10.60;99.90
27619;DHT22;15039;50.830;4.730;2023-12-28T06:56:41;10.50;99.90
27619;DHT22;15039;50.830;4.730;2023-12-28T06:59:07;10.50;99.90
27619;DHT22;15039;50.830;4.730;2023-12-28T07:01:40;10.60;99.90
27619;DHT22;15039;50.830;4.730;2023-12-28T07:04:05;10.50;99.90
27619;DHT22;15039;50.830;4.730;2023-12-28T07:06:31;10.40;99.90
27619;DHT22;15039;50.830;4.730;2023-12-28T07:08:57;10.40;99.90
27619;DHT22;15039;50.830;4.730;2023-12-28T07:11:22;10.40;99.90
27619;DHT22;15039;50.830;4.730;2023-12-28T07:13:48;10.40;99.90
27619;DHT22;15039;50.830;4.730;2023-12-28T07:16:14;10.40;99.90
27619;DHT22;15039;50.830;4.730;2023-12-28T07:18:41;10.40;99.90
27619;DHT22;15039;50.830;4.730;2023-12-28T07:21:07;10.40;99.90
27619;DHT22;15039;50.830;4.730;2023-12-28T07:23:36;10.30;99.90
27619;DHT22;15039;50.830;4.730;2023-12-28T07:26:03;10.30;99.90
27619;DHT22;15039;50.830;4.730;2023-12-28T07:28:28;10.30;99.90
27619;DHT22;15039;50.830;4.730;2023-12-28T07:30:54;10.30;99.90
27619;DHT22;15039;50.830;4.730;2023-12-28T07:33:20;10.30;99.90
27619;DHT22;15039;50.830;4.730;2023-12-28T07:35:46;10.20;99.90
27619;DHT22;15039;50.830;4.730;2023-12-28T07:38:12;10.20;99.90
27619;DHT22;15039;50.830;4.730;2023-12-28T07:40:38;10.20;99.90
27619;DHT22;15039;50.830;4.730;2023-12-28T07:43:04;10.20;99.90
27619;DHT22;15039;50.830;4.730;2023-12-28T07:45:30;10.20;99.90
27619;DHT22;15039;50.830;4.730;2023-12-28T07:47:58;10.10;99.90
27619;DHT22;15039;50.830;4.730;2023-12-28T07:50:24;10.10;99.90
27619;DHT22;15039;50.830;4.730;2023-12-28T07:52:50;10.10;99.90
27619;DHT22;15039;50.830;4.730;2023-12-28T07:55:15;10.10;99.90
27619;DHT22;15039;50.830;4.730;2023-12-28T07:57:42;10.10;99.90
27619;DHT22;15039;50.830;4.730;2023-12-28T08:00:08;10.10;99.90
27619;DHT22;15039;50.830;4.730;2023-12-28T08:02:34;10.10;99.90
27619;DHT22;15039;50.830;4.730;2023-12-28T08:05:00;10.10;99.90
27619;DHT22;15039;50.830;4.730;2023-12-28T08:07:25;10.10;99.90
27619;DHT22;15039;50.830;4.730;2023-12-28T08:09:51;10.10;99.90
27619;DHT22;15039;50.830;4.730;2023-12-28T08:12:17;10.10;99.90
27619;DHT22;15039;50.830;4.730;2023-12-28T08:14:43;10.10;99.90
27619;DHT22;15039;50.830;4.730;2023-12-28T08:17:09;10.20;99.90
27619;DHT22;15039;50.830;4.730;2023-12-28T08:19:35;10.20;99.90
27619;DHT22;15039;50.830;4.730;2023-12-28T08:22:01;10.20;99.90
27619;DHT22;15039;50.830;4.730;2023-12-28T08:24:28;10.20;99.90
27619;DHT22;15039;50.830;4.730;2023-12-28T08:26:53;10.30;99.90
27619;DHT22;15039;50.830;4.730;2023-12-28T08:29:19;10.20;99.90
27619;DHT22;15039;50.830;4.730;2023-12-28T08:31:45;10.30;99.90
27619;DHT22;15039;50.830;4.730;2023-12-28T08:34:11;10.30;99.90
27619;DHT22;15039;50.830;4.730;2023-12-28T08:36:36;10.40;99.90
27619;DHT22;15039;50.830;4.730;2023-12-28T08:39:02;10.40;99.90
27619;DHT22;15039;50.830;4.730;2023-12-28T08:41:29;10.40;99.90
27619;DHT22;15039;50.830;4.730;2023-12-28T08:43:54;10.50;99.90
27619;DHT22;15039;50.830;4.730;2023-12-28T08:46:21;10.60;99.90
27619;DHT22;15039;50.830;4.730;2023-12-28T08:48:47;10.60;99.90
27619;DHT22;15039;50.830;4.730;2023-12-28T08:51:13;10.70;99.90
27619;DHT22;15039;50.830;4.730;2023-12-28T08:53:40;10.70;99.90
27619;DHT22;15039;50.830;4.730;2023-12-28T08:56:19;10.70;99.90
27619;DHT22;15039;50.830;4.730;2023-12-28T08:58:46;10.70;99.90
27619;DHT22;15039;50.830;4.730;2023-12-28T09:01:16;10.70;99.90
27619;DHT22;15039;50.830;4.730;2023-12-28T09:03:43;10.80;99.90
27619;DHT22;15039;50.830;4.730;2023-12-28T09:06:09;10.70;99.90
27619;DHT22;15039;50.830;4.730;2023-12-28T09:08:35;10.70;99.90
27619;DHT22;15039;50.830;4.730;2023-12-28T09:11:00;10.80;99.90
27619;DHT22;15039;50.830;4.730;2023-12-28T09:13:26;10.90;99.90
27619;DHT22;15039;50.830;4.730;2023-12-28T09:15:52;10.90;99.90
27619;DHT22;15039;50.830;4.730;2023-12-28T09:18:17;11.00;99.90
27619;DHT22;15039;50.830;4.730;2023-12-28T09:20:43;10.90;99.90
27619;DHT22;15039;50.830;4.730;2023-12-28T09:23:10;11.00;99.90
27619;DHT22;15039;50.830;4.730;2023-12-28T09:25:36;11.00;99.90
27619;DHT22;15039;50.830;4.730;2023-12-28T09:28:04;11.00;99.90
27619;DHT22;15039;50.830;4.730;2023-12-28T09:30:30;11.10;99.90
27619;DHT22;15039;50.830;4.730;2023-12-28T09:32:56;11.10;99.90
27619;DHT22;15039;50.830;4.730;2023-12-28T09:35:22;11.10;99.90
27619;DHT22;15039;50.830;4.730;2023-12-28T09:37:48;11.10;99.90
27619;DHT22;15039;50.830;4.730;2023-12-28T09:40:14;11.10;99.90
27619;DHT22;15039;50.830;4.730;2023-12-28T09:42:51;11.10;99.90
27619;DHT22;15039;50.830;4.730;2023-12-28T09:45:19;11.20;99.90
27619;DHT22;15039;50.830;4.730;2023-12-28T09:47:46;11.20;99.90
27619;DHT22;15039;50.830;4.730;2023-12-28T09:50:18;11.20;99.90
27619;DHT22;15039;50.830;4.730;2023-12-28T09:52:44;11.20;99.90
27619;DHT22;15039;50.830;4.730;2023-12-28T09:55:10;11.20;99.90
27619;DHT22;15039;50.830;4.730;2023-12-28T09:57:37;11.20;99.90
27619;DHT22;15039;50.830;4.730;2023-12-28T10:00:03;11.30;99.90
27619;DHT22;15039;50.830;4.730;2023-12-28T10:02:32;11.30;99.90
27619;DHT22;15039;50.830;4.730;2023-12-28T10:04:59;11.20;99.90
27619;DHT22;15039;50.830;4.730;2023-12-28T10:07:24;11.20;99.90
27619;DHT22;15039;50.830;4.730;2023-12-28T10:09:52;11.30;99.90
27619;DHT22;15039;50.830;4.730;2023-12-28T10:12:18;11.30;99.90
27619;DHT22;15039;50.830;4.730;2023-12-28T10:14:43;11.30;99.90
27619;DHT22;15039;50.830;4.730;2023-12-28T10:17:09;11.30;99.90
27619;DHT22;15039;50.830;4.730;2023-12-28T10:19:37;11.30;99.90
27619;DHT22;15039;50.830;4.730;2023-12-28T10:22:02;11.40;99.90
27619;DHT22;15039;50.830;4.730;2023-12-28T10:24:28;11.30;99.90
27619;DHT22;15039;50.830;4.730;2023-12-28T10:26:55;11.30;99.90
27619;DHT22;15039;50.830;4.730;2023-12-28T10:29:24;11.40;99.90
27619;DHT22;15039;50.830;4.730;2023-12-28T10:31:50;11.50;99.90
27619;DHT22;15039;50.830;4.730;2023-12-28T10:34:18;11.50;99.90
27619;DHT22;15039;50.830;4.730;2023-12-28T10:36:45;11.60;99.90
27619;DHT22;15039;50.830;4.730;2023-12-28T10:39:11;11.70;99.90
27619;DHT22;15039;50.830;4.730;2023-12-28T10:41:41;11.70;99.90
27619;DHT22;15039;50.830;4.730;2023-12-28T10:44:11;11.60;99.90
27619;DHT22;15039;50.830;4.730;2023-12-28T10:46:40;11.60;99.90
27619;DHT22;15039;50.830;4.730;2023-12-28T10:49:12;11.70;99.90
27619;DHT22;15039;50.830;4.730;2023-12-28T10:51:42;11.80;99.90
27619;DHT22;15039;50.830;4.730;2023-12-28T10:54:36;11.90;99.90
27619;DHT22;15039;50.830;4.730;2023-12-28T11:00:10;12.00;99.90
27619;DHT22;15039;50.830;4.730;2023-12-28T11:02:48;12.20;99.90
27619;DHT22;15039;50.830;4.730;2023-12-28T11:05:18;12.20;99.90
27619;DHT22;15039;50.830;4.730;2023-12-28T11:07:45;12.20;99.90
27619;DHT22;15039;50.830;4.730;2023-12-28T11:10:13;12.30;99.90
27619;DHT22;15039;50.830;4.730;2023-12-28T11:12:39;12.30;99.90
27619;DHT22;15039;50.830;4.730;2023-12-28T11:15:06;12.30;99.90
27619;DHT22;15039;50.830;4.730;2023-12-28T11:17:35;12.40;99.90
27619;DHT22;15039;50.830;4.730;2023-12-28T11:20:06;12.40;99.90
27619;DHT22;15039;50.830;4.730;2023-12-28T11:22:33;12.50;99.90
27619;DHT22;15039;50.830;4.730;2023-12-28T11:24:59;12.60;99.90
27619;DHT22;15039;50.830;4.730;2023-12-28T11:27:24;12.60;99.90
27619;DHT22;15039;50.830;4.730;2023-12-28T11:29:51;12.60;99.90
27619;DHT22;15039;50.830;4.730;2023-12-28T11:32:19;12.60;99.90
27619;DHT22;15039;50.830;4.730;2023-12-28T11:34:56;12.60;99.90
27619;DHT22;15039;50.830;4.730;2023-12-28T11:37:24;12.50;99.90
27619;DHT22;15039;50.830;4.730;2023-12-28T11:39:51;12.50;99.90
27619;DHT22;15039;50.830;4.730;2023-12-28T11:42:20;12.50;99.90
27619;DHT22;15039;50.830;4.730;2023-12-28T11:44:46;12.50;99.90
27619;DHT22;15039;50.830;4.730;2023-12-28T11:47:21;12.50;99.90
27619;DHT22;15039;50.830;4.730;2023-12-28T11:49:49;12.60;99.90
27619;DHT22;15039;50.830;4.730;2023-12-28T11:52:30;12.50;99.90
27619;DHT22;15039;50.830;4.730;2023-12-28T11:54:56;12.60;99.90
27619;DHT22;15039;50.830;4.730;2023-12-28T11:57:22;12.60;99.90
27619;DHT22;15039;50.830;4.730;2023-12-28T12:00:00;12.70;99.90
27619;DHT22;15039;50.830;4.730;2023-12-28T12:02:26;12.90;99.90
27619;DHT22;15039;50.830;4.730;2023-12-28T12:04:55;12.80;99.90
27619;DHT22;15039;50.830;4.730;2023-12-28T12:07:24;12.90;99.90
27619;DHT22;15039;50.830;4.730;2023-12-28T12:09:58;12.80;99.90
27619;DHT22;15039;50.830;4.730;2023-12-28T12:12:24;12.70;99.90
27619;DHT22;15039;50.830;4.730;2023-12-28T12:14:50;12.80;99.90
27619;DHT22;15039;50.830;4.730;2023-12-28T12:17:17;12.90;99.90
27619;DHT22;15039;50.830;4.730;2023-12-28T12:19:43;12.80;99.90
27619;DHT22;15039;50.830;4.730;2023-12-28T12:22:09;12.80;99.90
27619;DHT22;15039;50.830;4.730;2023-12-28T12:24:35;12.70;99.90
27619;DHT22;15039;50.830;4.730;2023-12-28T12:27:01;12.60;99.90
27619;DHT22;15039;50.830;4.730;2023-12-28T12:29:29;12.50;99.90
27619;DHT22;15039;50.830;4.730;2023-12-28T12:31:56;12.40;99.90
27619;DHT22;15039;50.830;4.730;2023-12-28T12:34:22;12.40;99.90
27619;DHT22;15039;50.830;4.730;2023-12-28T12:36:49;12.60;99.90
27619;DHT22;15039;50.830;4.730;2023-12-28T12:39:17;12.60;99.90
27619;DHT22;15039;50.830;4.730;2023-12-28T12:41:46;12.60;99.90
27619;DHT22;15039;50.830;4.730;2023-12-28T12:44:11;12.50;99.90
27619;DHT22;15039;50.830;4.730;2023-12-28T12:46:38;12.50;99.90
27619;DHT22;15039;50.830;4.730;2023-12-28T12:49:05;12.50;99.90
27619;DHT22;15039;50.830;4.730;2023-12-28T12:51:31;12.50;99.90
27619;DHT22;15039;50.830;4.730;2023-12-28T12:54:00;12.40;99.90
27619;DHT22;15039;50.830;4.730;2023-12-28T12:56:28;12.30;99.90
27619;DHT22;15039;50.830;4.730;2023-12-28T12:58:54;12.30;99.90
27619;DHT22;15039;50.830;4.730;2023-12-28T13:01:21;12.40;99.90
27619;DHT22;15039;50.830;4.730;2023-12-28T13:03:46;12.40;99.90
27619;DHT22;15039;50.830;4.730;2023-12-28T13:06:12;12.30;99.90
27619;DHT22;15039;50.830;4.730;2023-12-28T13:08:38;12.40;99.90
27619;DHT22;15039;50.830;4.730;2023-12-28T13:11:05;12.50;99.90
27619;DHT22;15039;50.830;4.730;2023-12-28T13:13:34;12.40;99.90
27619;DHT22;15039;50.830;4.730;2023-12-28T13:16:00;12.40;99.90
27619;DHT22;15039;50.830;4.730;2023-12-28T13:18:26;12.40;99.90
27619;DHT22;15039;50.830;4.730;2023-12-28T13:20:52;12.40;99.90
27619;DHT22;15039;50.830;4.730;2023-12-28T13:23:18;12.30;99.90
27619;DHT22;15039;50.830;4.730;2023-12-28T13:25:43;12.30;99.90
27619;DHT22;15039;50.830;4.730;2023-12-28T13:28:10;12.30;99.90
27619;DHT22;15039;50.830;4.730;2023-12-28T13:30:36;12.30;99.90
27619;DHT22;15039;50.830;4.730;2023-12-28T13:33:05;12.30;99.90
27619;DHT22;15039;50.830;4.730;2023-12-28T13:35:31;12.20;99.90
27619;DHT22;15039;50.830;4.730;2023-12-28T13:38:00;12.10;99.90
27619;DHT22;15039;50.830;4.730;2023-12-28T13:40:27;12.20;99.90
27619;DHT22;15039;50.830;4.730;2023-12-28T13:42:53;12.20;99.90
27619;DHT22;15039;50.830;4.730;2023-12-28T13:45:19;12.30;99.90
27619;DHT22;15039;50.830;4.730;2023-12-28T13:47:44;12.20;99.90
27619;DHT22;15039;50.830;4.730;2023-12-28T13:50:10;12.20;99.90
27619;DHT22;15039;50.830;4.730;2023-12-28T13:52:37;12.20;99.90
27619;DHT22;15039;50.830;4.730;2023-12-28T13:55:03;12.20;99.90
27619;DHT22;15039;50.830;4.730;2023-12-28T13:57:29;12.10;99.90
27619;DHT22;15039;50.830;4.730;2023-12-28T13:59:56;12.10;99.90
27619;DHT22;15039;50.830;4.730;2023-12-28T14:02:26;12.10;99.90
27619;DHT22;15039;50.830;4.730;2023-12-28T14:04:51;12.10;99.90
27619;DHT22;15039;50.830;4.730;2023-12-28T14:07:17;12.10;99.90
27619;DHT22;15039;50.830;4.730;2023-12-28T14:09:42;12.10;99.90
27619;DHT22;15039;50.830;4.730;2023-12-28T14:12:09;12.10;99.90
27619;DHT22;15039;50.830;4.730;2023-12-28T14:14:34;12.00;99.90
27619;DHT22;15039;50.830;4.730;2023-12-28T14:17:00;12.00;99.90
27619;DHT22;15039;50.830;4.730;2023-12-28T14:19:26;12.00;99.90
27619;DHT22;15039;50.830;4.730;2023-12-28T14:21:51;12.10;99.90
27619;DHT22;15039;50.830;4.730;2023-12-28T14:24:17;12.10;99.90
27619;DHT22;15039;50.830;4.730;2023-12-28T14:26:44;12.10;99.90
27619;DHT22;15039;50.830;4.730;2023-12-28T14:29:11;12.10;99.90
27619;DHT22;15039;50.830;4.730;2023-12-28T14:31:38;12.10;99.90
27619;DHT22;15039;50.830;4.730;2023-12-28T14:34:04;12.10;99.90
27619;DHT22;15039;50.830;4.730;2023-12-28T14:36:35;12.10;99.90
27619;DHT22;15039;50.830;4.730;2023-12-28T14:39:09;12.00;99.90
27619;DHT22;15039;50.830;4.730;2023-12-28T14:41:36;12.00;99.90
27619;DHT22;15039;50.830;4.730;2023-12-28T14:44:03;12.00;99.90
27619;DHT22;15039;50.830;4.730;2023-12-28T14:46:30;12.00;99.90
27619;DHT22;15039;50.830;4.730;2023-12-28T14:48:56;12.00;99.90
27619;DHT22;15039;50.830;4.730;2023-12-28T14:51:32;11.90;99.90
27619;DHT22;15039;50.830;4.730;2023-12-28T14:54:08;11.80;99.90
27619;DHT22;15039;50.830;4.730;2023-12-28T14:56:42;11.80;99.90
27619;DHT22;15039;50.830;4.730;2023-12-28T14:59:16;11.80;99.90
27619;DHT22;15039;50.830;4.730;2023-12-28T15:01:45;11.80;99.90
27619;DHT22;15039;50.830;4.730;2023-12-28T15:04:14;11.80;99.90
27619;DHT22;15039;50.830;4.730;2023-12-28T15:06:41;11.80;99.90
27619;DHT22;15039;50.830;4.730;2023-12-28T15:09:16;11.70;99.90
27619;DHT22;15039;50.830;4.730;2023-12-28T15:12:02;11.70;99.90
27619;DHT22;15039;50.830;4.730;2023-12-28T15:14:31;11.70;99.90
27619;DHT22;15039;50.830;4.730;2023-12-28T15:17:01;11.70;99.90
27619;DHT22;15039;50.830;4.730;2023-12-28T15:19:27;11.70;99.90
27619;DHT22;15039;50.830;4.730;2023-12-28T15:22:29;11.70;99.90
27619;DHT22;15039;50.830;4.730;2023-12-28T15:25:14;11.60;99.90
27619;DHT22;15039;50.830;4.730;2023-12-28T15:27:41;11.60;99.90
27619;DHT22;15039;50.830;4.730;2023-12-28T15:30:27;11.60;99.90
27619;DHT22;15039;50.830;4.730;2023-12-28T15:32:58;11.60;99.90